createdAt,value
2023-02-18T00:01:44.958Z,101532.09
2023-02-18T00:03:48.059Z,101533.72
2023-02-18T00:05:52.510Z,101529.34
2023-02-18T00:07:55.249Z,101520.84
2023-02-18T00:09:58.123Z,101518.25
2023-02-18T00:12:00.968Z,101515.59
2023-02-18T00:14:07.004Z,101523.44
2023-02-18T00:16:11.548Z,101521.75
2023-02-18T00:18:14.328Z,101520.91
2023-02-18T00:20:17.237Z,101520.06
2023-02-18T00:22:21.370Z,101518.38
2023-02-18T00:24:24.301Z,101530.66
2023-02-18T00:26:27.992Z,101520.38
2023-02-18T00:28:31.228Z,101523.06
2023-02-18T00:30:36.152Z,101516.25
2023-02-18T00:32:39.047Z,101511.84
2023-02-18T00:34:41.891Z,101516.06
2023-02-18T00:36:44.671Z,101506.31
2023-02-18T00:38:50.713Z,101506.25
2023-02-18T00:40:53.774Z,101508.13
2023-02-18T00:42:56.614Z,101512.56
2023-02-18T00:44:59.486Z,101518.59
2023-02-18T00:47:02.955Z,101521.97
2023-02-18T00:49:07.198Z,101520.22
2023-02-18T00:51:11.811Z,101517.63
2023-02-18T00:53:14.926Z,101520.31
2023-02-18T00:55:19.097Z,101512.59
2023-02-18T00:57:21.898Z,101517.88
2023-02-18T00:59:25.448Z,101506.50
2023-02-18T01:01:28.893Z,101506.56
2023-02-18T01:03:31.774Z,101507.31
2023-02-18T01:05:34.789Z,101507.34
2023-02-18T01:07:37.593Z,101501.28
2023-02-18T01:09:41.598Z,101497.03
2023-02-18T01:11:45.813Z,101506.56
2023-02-18T01:13:48.979Z,101501.44
2023-02-18T01:15:51.974Z,101497.97
2023-02-18T01:17:54.836Z,101499.63
2023-02-18T01:19:57.714Z,101500.63
2023-02-18T01:22:00.526Z,101512.91
2023-02-18T01:24:03.325Z,101499.06
2023-02-18T01:26:06.721Z,101512.91
2023-02-18T01:28:14.382Z,101516.47
2023-02-18T01:30:19.020Z,101507.75
2023-02-18T01:32:21.768Z,101510.28
2023-02-18T01:34:26.238Z,101494.72
2023-02-18T01:36:29.136Z,101499.97
2023-02-18T01:38:32.692Z,101493.84
2023-02-18T01:40:35.991Z,101491.25
2023-02-18T01:42:38.824Z,101493.03
2023-02-18T01:44:42.961Z,101498.31
2023-02-18T01:46:46.146Z,101499.94
2023-02-18T01:48:52.658Z,101503.41
2023-02-18T01:50:58.276Z,101494.84
2023-02-18T01:53:01.792Z,101498.34
2023-02-18T01:55:07.002Z,101503.50
2023-02-18T01:57:12.842Z,101509.53
2023-02-18T01:59:19.076Z,101505.22
2023-02-18T02:01:24.210Z,101497.22
2023-02-18T02:03:26.984Z,101513.72
2023-02-18T02:05:32.506Z,101505.88
2023-02-18T02:07:35.759Z,101499.00
2023-02-18T02:09:41.369Z,101483.25
2023-02-18T02:12:19.340Z,101482.28
2023-02-18T02:14:36.469Z,101474.59
2023-02-18T02:16:46.395Z,101468.47
2023-02-18T02:19:01.497Z,101467.59
2023-02-18T02:21:41.031Z,101463.22
2023-02-18T02:24:16.405Z,101472.00
2023-02-18T02:26:55.047Z,101477.25
2023-02-18T02:29:27.229Z,101464.19
2023-02-18T02:31:50.479Z,101453.75
2023-02-18T02:34:24.401Z,101441.66
2023-02-18T02:36:37.756Z,101445.94
2023-02-18T02:38:50.506Z,101443.34
2023-02-18T02:40:58.389Z,101433.84
2023-02-18T02:43:11.307Z,101437.28
2023-02-18T02:45:24.910Z,101436.38
2023-02-18T02:47:38.583Z,101434.50
2023-02-18T02:49:51.450Z,101429.19
2023-02-18T02:52:01.484Z,101431.81
2023-02-18T02:54:14.797Z,101426.69
2023-02-18T02:56:19.600Z,101426.50
2023-02-18T02:58:23.054Z,101422.16
2023-02-18T03:00:41.628Z,101423.97
2023-02-18T03:03:03.490Z,101431.72
2023-02-18T03:05:20.330Z,101432.41
2023-02-18T03:07:43.331Z,101430.63
2023-02-18T03:10:04.648Z,101424.50
2023-02-18T03:12:13.264Z,101423.50
2023-02-18T03:14:28.762Z,101423.63
2023-02-18T03:16:39.998Z,101421.75
2023-02-18T03:18:46.867Z,101417.47
2023-02-18T03:20:55.958Z,101420.03
2023-02-18T03:23:04.220Z,101427.72
2023-02-18T03:25:08.444Z,101414.50
2023-02-18T03:27:17.149Z,101406.06
2023-02-18T03:29:22.971Z,101408.84
2023-02-18T03:31:30.078Z,101410.66
2023-02-18T03:33:37.928Z,101409.81
2023-02-18T03:35:43.985Z,101417.59
2023-02-18T03:37:52.120Z,101413.41
2023-02-18T03:40:02.660Z,101409.84
2023-02-18T03:42:05.817Z,101407.25
2023-02-18T03:44:10.466Z,101401.16
2023-02-18T03:46:15.179Z,101420.16
2023-02-18T03:48:19.709Z,101420.94
2023-02-18T03:50:22.572Z,101414.91
2023-02-18T03:52:25.544Z,101426.16
2023-02-18T03:54:29.717Z,101420.97
2023-02-18T03:56:32.574Z,101414.81
2023-02-18T03:58:35.330Z,101421.84
2023-02-18T04:00:38.223Z,101413.84
2023-02-18T04:02:41.667Z,101414.78
2023-02-18T04:04:44.518Z,101401.91
2023-02-18T04:06:47.542Z,101419.31
2023-02-18T04:08:50.655Z,101407.09
2023-02-18T04:10:54.953Z,101412.28
2023-02-18T04:12:57.775Z,101421.75
2023-02-18T04:15:00.629Z,101431.53
2023-02-18T04:17:03.429Z,101413.19
2023-02-18T04:19:06.245Z,101427.00
2023-02-18T04:21:09.081Z,101425.31
2023-02-18T04:23:11.888Z,101422.69
2023-02-18T04:25:14.694Z,101415.81
2023-02-18T04:27:18.919Z,101428.97
2023-02-18T04:29:22.042Z,101426.16
2023-02-18T04:31:24.991Z,101427.00
2023-02-18T04:33:27.944Z,101422.63
2023-02-18T04:35:30.771Z,101431.22
2023-02-18T04:37:33.569Z,101425.22
2023-02-18T04:39:36.339Z,101438.19
2023-02-18T04:41:39.294Z,101419.97
2023-02-18T04:43:43.510Z,101425.31
2023-02-18T04:45:46.299Z,101419.19
2023-02-18T04:47:49.078Z,101419.31
2023-02-18T04:49:51.915Z,101420.13
2023-02-18T04:51:54.816Z,101424.50
2023-02-18T04:53:57.685Z,101432.28
2023-02-18T04:56:00.772Z,101433.19
2023-02-18T04:58:03.560Z,101424.44
2023-02-18T05:00:11.252Z,101423.53
2023-02-18T05:02:14.149Z,101412.22
2023-02-18T05:04:18.220Z,101406.91
2023-02-18T05:06:20.993Z,101411.28
2023-02-18T05:08:24.187Z,101429.44
2023-02-18T05:10:26.943Z,101427.72
2023-02-18T05:12:30.888Z,101432.84
2023-02-18T05:14:33.745Z,101432.06
2023-02-18T05:16:39.000Z,101426.97
2023-02-18T05:18:42.119Z,101419.09
2023-02-18T05:20:45.054Z,101418.25
2023-02-18T05:22:47.820Z,101412.28
2023-02-18T05:24:50.623Z,101424.53
2023-02-18T05:26:53.429Z,101425.47
2023-02-18T05:28:57.312Z,101423.88
2023-02-18T05:31:00.488Z,101416.84
2023-02-18T05:33:04.830Z,101420.22
2023-02-18T05:35:08.728Z,101422.88
2023-02-18T05:37:13.617Z,101427.31
2023-02-18T05:39:16.385Z,101426.38
2023-02-18T05:41:19.180Z,101424.59
2023-02-18T05:43:22.044Z,101417.69
2023-02-18T05:45:24.872Z,101417.72
2023-02-18T05:47:27.743Z,101422.84
2023-02-18T05:49:32.956Z,101424.75
2023-02-18T05:51:35.758Z,101422.97
2023-02-18T05:53:38.595Z,101423.84
2023-02-18T05:55:41.811Z,101422.97
2023-02-18T05:57:44.626Z,101421.22
2023-02-18T05:59:47.412Z,101416.81
2023-02-18T06:01:50.402Z,101419.50
2023-02-18T06:03:53.161Z,101420.50
2023-02-18T06:05:57.863Z,101420.56
2023-02-18T06:08:00.586Z,101414.25
2023-02-18T06:10:03.463Z,101415.13
2023-02-18T06:12:06.908Z,101406.44
2023-02-18T06:14:09.777Z,101391.59
2023-02-18T06:16:12.625Z,101396.78
2023-02-18T06:18:15.403Z,101392.44
2023-02-18T06:20:18.257Z,101397.56
2023-02-18T06:22:22.726Z,101401.91
2023-02-18T06:24:25.548Z,101397.53
2023-02-18T06:26:28.359Z,101396.72
2023-02-18T06:28:31.297Z,101405.34
2023-02-18T06:30:34.121Z,101400.06
2023-02-18T06:32:36.968Z,101399.22
2023-02-18T06:34:39.794Z,101393.25
2023-02-18T06:36:42.692Z,101389.94
2023-02-18T06:38:46.846Z,101389.00
2023-02-18T06:40:49.731Z,101394.28
2023-02-18T06:42:52.628Z,101384.72
2023-02-18T06:44:55.462Z,101386.47
2023-02-18T06:46:58.295Z,101386.47
2023-02-18T06:49:01.432Z,101375.31
2023-02-18T06:51:04.531Z,101372.72
2023-02-18T06:53:07.381Z,101376.19
2023-02-18T06:55:12.192Z,101372.88
2023-02-18T06:57:15.086Z,101378.03
2023-02-18T06:59:18.083Z,101367.59
2023-02-18T07:01:20.849Z,101364.91
2023-02-18T07:03:23.661Z,101366.75
2023-02-18T07:05:26.437Z,101369.56
2023-02-18T07:07:29.314Z,101374.63
2023-02-18T07:09:32.160Z,101371.19
2023-02-18T13:30:24.966Z,101158.13
2023-02-18T13:32:34.657Z,101156.34
2023-02-18T13:34:43.097Z,101156.28
2023-02-18T13:36:58.411Z,101152.81
2023-02-18T13:39:06.717Z,101145.84
2023-02-18T13:41:10.120Z,101147.53
2023-02-18T13:43:22.500Z,101141.47
2023-02-18T13:45:31.546Z,101132.78
2023-02-18T13:47:38.071Z,101136.28
2023-02-18T13:49:42.756Z,101138.00
2023-02-18T13:51:46.382Z,101142.38
2023-02-18T13:53:52.879Z,101150.25
2023-02-18T13:55:59.999Z,101145.78
2023-02-18T13:58:03.070Z,101148.41
2023-02-18T14:00:16.373Z,101140.56
2023-02-18T14:02:34.435Z,101157.03
2023-02-18T14:04:52.294Z,101146.56
2023-02-18T14:07:26.212Z,101156.19
2023-02-18T14:09:39.454Z,101148.44
2023-02-18T14:11:48.320Z,101154.41
2023-02-18T14:13:55.099Z,101152.69
2023-02-18T14:16:01.924Z,101154.50
2023-02-18T14:18:25.465Z,101150.22
2023-02-18T14:20:51.412Z,101156.28
2023-02-18T14:22:54.440Z,101140.50
2023-02-18T14:25:01.477Z,101150.72
2023-02-18T14:27:15.886Z,101154.13
2023-02-18T14:29:27.704Z,101156.78
2023-02-18T14:31:50.959Z,101167.28
2023-02-18T14:34:19.693Z,101170.66
2023-02-18T14:36:33.170Z,101168.13
2023-02-18T14:38:47.106Z,101163.72
2023-02-18T14:41:19.805Z,101176.69
2023-02-18T14:43:35.278Z,101174.94
2023-02-18T14:46:01.374Z,101168.88
2023-02-18T14:48:20.497Z,101175.75
2023-02-18T14:50:25.048Z,101174.78
2023-02-18T14:52:32.899Z,101166.19
2023-02-18T14:54:36.739Z,101169.75
2023-02-18T14:56:45.584Z,101167.94
2023-02-18T14:58:51.543Z,101177.59
2023-02-18T15:00:54.454Z,101183.72
2023-02-18T15:02:57.218Z,101187.28
2023-02-18T15:05:26.535Z,101180.19
2023-02-18T15:07:29.349Z,101185.50
2023-02-18T15:09:32.643Z,101187.16
2023-02-18T15:11:40.095Z,101175.03
2023-02-18T15:13:45.078Z,101182.84
2023-02-18T15:15:51.055Z,101192.47
2023-02-18T15:17:53.947Z,101202.63
2023-02-18T15:19:59.048Z,101208.59
2023-02-18T15:22:03.325Z,101205.19
2023-02-18T15:24:11.086Z,101203.34
2023-02-18T15:26:15.676Z,101198.88
2023-02-18T15:28:27.834Z,101201.38
2023-02-18T15:30:32.405Z,101205.75
2023-02-18T15:32:35.206Z,101213.50
2023-02-18T15:34:40.305Z,101213.41
2023-02-18T15:36:43.087Z,101216.81
2023-02-18T15:38:47.252Z,101216.84
2023-02-18T15:40:53.070Z,101226.41
2023-02-18T15:42:58.836Z,101223.75
2023-02-18T15:45:06.353Z,101221.00
2023-02-18T15:47:10.827Z,101223.56
2023-02-18T15:49:16.995Z,101217.50
2023-02-18T15:51:23.132Z,101220.00
2023-02-18T15:53:27.034Z,101223.44
2023-02-18T15:55:34.257Z,101217.38
2023-02-18T15:57:37.953Z,101224.28
2023-02-18T15:59:46.099Z,101223.38
2023-02-18T16:01:51.055Z,101233.81
2023-02-18T16:03:56.186Z,101233.63
2023-02-18T16:06:13.780Z,101234.53
2023-02-18T16:08:18.684Z,101232.84
2023-02-18T16:10:23.609Z,101238.09
2023-02-18T16:12:31.404Z,101234.41
2023-02-18T16:14:37.233Z,101230.13
2023-02-18T16:16:40.807Z,101231.88
2023-02-18T16:18:43.952Z,101239.66
2023-02-18T16:20:54.925Z,101232.75
2023-02-18T16:23:02.232Z,101233.63
2023-02-18T16:25:25.628Z,101237.91
2023-02-18T16:27:37.973Z,101248.28
2023-02-18T16:29:44.788Z,101251.63
2023-02-18T16:31:47.700Z,101248.28
2023-02-18T16:33:50.811Z,101245.81
2023-02-18T16:35:53.610Z,101260.38
2023-02-18T16:37:57.704Z,101254.97
2023-02-18T16:40:00.516Z,101260.25
2023-02-18T16:42:03.396Z,101248.81
2023-02-18T16:44:14.433Z,101262.63
2023-02-18T16:46:19.520Z,101262.53
2023-02-18T16:48:27.683Z,101259.94
2023-02-18T16:50:33.723Z,101264.22
2023-02-18T16:52:37.185Z,101267.53
2023-02-18T16:54:39.936Z,101283.09
2023-02-18T16:56:42.742Z,101276.06
2023-02-18T16:58:45.880Z,101279.66
2023-02-18T17:00:52.268Z,101282.19
2023-02-18T17:02:57.860Z,101288.94
2023-02-18T17:05:00.736Z,101286.16
2023-02-18T17:07:03.658Z,101283.69
2023-02-18T17:09:07.834Z,101281.16
2023-02-18T17:11:16.861Z,101289.91
2023-02-18T17:13:21.898Z,101288.72
2023-02-18T17:15:30.895Z,101292.19
2023-02-18T17:17:35.640Z,101302.59
2023-02-18T17:19:38.307Z,101290.13
2023-02-18T17:21:41.566Z,101297.72
2023-02-18T17:23:44.968Z,101289.03
2023-02-18T17:25:49.185Z,101286.50
2023-02-18T17:27:51.989Z,101295.34
2023-02-18T17:29:54.833Z,101305.69
2023-02-18T17:31:58.319Z,101301.41
2023-02-18T17:34:06.283Z,101313.31
2023-02-18T17:36:10.565Z,101308.31
2023-02-18T17:38:15.470Z,101314.41
2023-02-18T17:40:20.555Z,101305.66
2023-02-18T17:42:23.474Z,101310.81
2023-02-18T17:44:26.461Z,101304.94
2023-02-18T17:46:29.308Z,101309.22
2023-02-18T17:48:32.249Z,101310.75
2023-02-18T17:50:36.736Z,101307.09
2023-02-18T17:52:39.784Z,101301.72
2023-02-18T17:54:42.639Z,101307.91
2023-02-18T17:56:45.917Z,101308.16
2023-02-18T17:58:48.954Z,101303.72
2023-02-18T18:00:54.581Z,101301.94
2023-02-18T18:02:57.512Z,101297.72
2023-02-18T18:05:00.400Z,101305.41
2023-02-18T18:07:04.613Z,101301.59
2023-02-18T18:09:07.420Z,101294.53
2023-02-18T18:11:15.010Z,101294.63
2023-02-18T18:13:21.269Z,101290.22
2023-02-18T18:15:28.614Z,101297.00
2023-02-18T18:17:31.782Z,101301.44
2023-02-18T18:19:34.619Z,101287.47
2023-02-18T18:21:37.917Z,101298.88
2023-02-18T18:23:42.097Z,101294.34
2023-02-18T18:25:46.443Z,101298.75
2023-02-18T18:27:50.444Z,101306.53
2023-02-18T18:29:53.199Z,101302.91
2023-02-18T18:31:56.087Z,101302.16
2023-02-18T18:33:59.002Z,101294.41
2023-02-18T18:36:02.991Z,101301.22
2023-02-18T18:38:05.894Z,101296.94
2023-02-18T18:40:11.001Z,101309.03
2023-02-18T18:42:13.788Z,101296.84
2023-02-18T18:44:16.685Z,101301.94
2023-02-18T18:46:19.675Z,101302.63
2023-02-18T18:48:23.527Z,101311.34
2023-02-18T18:50:27.611Z,101307.00
2023-02-18T18:52:30.441Z,101307.91
2023-02-18T18:54:33.330Z,101297.56
2023-02-18T18:56:38.395Z,101300.13
2023-02-18T18:58:41.273Z,101308.16
2023-02-18T19:00:44.601Z,101314.13
2023-02-18T19:02:47.575Z,101304.81
2023-02-18T19:04:50.365Z,101308.19
2023-02-18T19:06:53.086Z,101315.78
2023-02-18T19:08:56.056Z,101313.97
2023-02-18T19:10:59.483Z,101318.25
2023-02-18T19:13:07.280Z,101317.41
2023-02-18T19:15:13.860Z,101312.44
2023-02-18T19:17:17.058Z,101320.16
2023-02-18T19:19:20.990Z,101312.28
2023-02-18T19:21:23.766Z,101321.88
2023-02-18T19:23:26.677Z,101320.06
2023-02-18T19:25:30.125Z,101314.97
2023-02-18T19:27:33.055Z,101312.47
2023-02-18T19:29:37.496Z,101295.94
2023-02-18T19:31:40.440Z,101303.88
2023-02-18T19:33:45.588Z,101308.19
2023-02-18T19:35:48.416Z,101309.00
2023-02-18T19:37:51.322Z,101301.31
2023-02-18T19:39:54.234Z,101300.47
2023-02-18T19:42:00.001Z,101298.53
2023-02-18T19:44:02.833Z,101299.22
2023-02-18T19:46:11.097Z,101303.31
2023-02-18T19:48:15.820Z,101301.53
2023-02-18T19:50:18.496Z,101302.44
2023-02-18T19:52:22.853Z,101302.56
2023-02-18T19:54:25.711Z,101303.34
2023-02-18T19:56:28.585Z,101306.06
2023-02-18T19:58:31.567Z,101296.56
2023-02-18T20:00:34.505Z,101288.75
2023-02-18T20:02:39.461Z,101286.03
2023-02-18T20:04:43.036Z,101287.78
2023-02-18T20:06:45.901Z,101281.56
2023-02-18T20:08:49.013Z,101288.53
2023-02-18T20:10:57.755Z,101290.13
2023-02-18T20:13:00.799Z,101288.38
2023-02-18T20:15:03.860Z,101291.81
2023-02-18T20:17:06.945Z,101287.44
2023-02-18T20:19:11.221Z,101290.91
2023-02-18T20:21:14.034Z,101281.25
2023-02-18T20:23:17.152Z,101281.22
2023-02-18T20:25:20.363Z,101281.19
2023-02-18T20:27:23.396Z,101282.84
2023-02-18T20:29:27.100Z,101285.72
2023-02-18T20:31:30.007Z,101286.53
2023-02-18T20:33:32.918Z,101281.28
2023-02-18T20:35:37.051Z,101284.72
2023-02-18T20:37:40.209Z,101284.91
2023-02-18T20:39:43.323Z,101288.31
2023-02-18T20:41:47.649Z,101280.28
2023-02-18T20:43:50.528Z,101287.25
2023-02-18T20:45:53.431Z,101279.59
2023-02-18T20:47:56.287Z,101283.22
2023-02-18T20:49:59.090Z,101277.41
2023-02-18T20:52:03.244Z,101273.22
2023-02-18T20:54:09.127Z,101268.75
2023-02-18T20:56:12.444Z,101272.25
2023-02-18T20:58:15.819Z,101266.94
2023-02-18T21:00:18.835Z,101267.63
2023-02-18T21:02:21.626Z,101272.00
2023-02-18T21:04:24.447Z,101265.88
2023-02-18T21:06:28.521Z,101269.31
2023-02-18T21:08:33.842Z,101277.09
2023-02-18T21:10:40.793Z,101265.94
2023-02-18T21:12:44.136Z,101268.22
2023-02-18T21:14:46.960Z,101274.25
2023-02-18T21:16:51.428Z,101267.31
2023-02-18T21:18:55.307Z,101276.13
2023-02-18T21:20:58.260Z,101258.75
2023-02-18T21:23:02.395Z,101269.09
2023-02-18T21:25:07.938Z,101274.31
2023-02-18T21:27:11.786Z,101264.59
2023-02-18T21:29:17.009Z,101272.69
2023-02-18T21:31:23.198Z,101267.16
2023-02-18T21:33:26.723Z,101271.47
2023-02-18T21:35:29.646Z,101271.50
2023-02-18T21:37:32.448Z,101261.88
2023-02-18T21:39:37.250Z,101261.03
2023-02-18T21:41:41.844Z,101268.84
2023-02-18T21:43:45.703Z,101257.50
2023-02-18T21:45:48.766Z,101256.72
2023-02-18T21:47:51.534Z,101264.38
2023-02-18T21:49:54.570Z,101261.72
2023-02-18T21:51:56.768Z,101249.56
2023-02-18T21:53:59.799Z,101251.47
2023-02-18T21:56:10.377Z,101243.75
2023-02-18T21:58:14.535Z,101247.97
2023-02-18T22:00:21.039Z,101252.16
2023-02-18T22:02:25.900Z,101247.78
2023-02-18T22:04:29.800Z,101252.13
2023-02-18T22:06:32.629Z,101248.66
2023-02-18T22:08:35.528Z,101253.78
2023-02-18T22:10:39.802Z,101252.84
2023-02-18T22:12:42.576Z,101246.72
2023-02-18T22:14:48.579Z,101241.75
2023-02-18T22:16:51.613Z,101239.00
2023-02-18T22:18:54.617Z,101234.66
2023-02-18T22:21:00.426Z,101232.81
2023-02-18T22:23:05.312Z,101239.66
2023-02-18T22:25:09.644Z,101234.53
2023-02-18T22:27:12.679Z,101230.19
2023-02-18T22:29:17.178Z,101239.72
2023-02-18T22:31:22.106Z,101234.63
2023-02-18T22:33:25.003Z,101225.13
2023-02-18T22:35:28.096Z,101237.16
2023-02-18T22:37:31.677Z,101235.47
2023-02-18T22:39:37.572Z,101232.97
2023-02-18T22:41:43.102Z,101232.88
2023-02-18T22:43:46.559Z,101223.31
2023-02-18T22:45:49.389Z,101233.66
2023-02-18T22:47:53.543Z,101231.81
2023-02-18T22:49:56.441Z,101232.00
2023-02-18T22:52:02.316Z,101240.66
2023-02-18T22:54:06.903Z,101234.63
2023-02-18T22:56:12.100Z,101242.38
2023-02-18T22:58:15.105Z,101236.50
2023-02-18T23:00:18.352Z,101238.47
2023-02-18T23:02:21.539Z,101232.09
2023-02-18T23:04:25.795Z,101228.84
2023-02-18T23:06:32.105Z,101218.50
2023-02-18T23:08:38.001Z,101232.38
2023-02-18T23:10:40.872Z,101212.28
2023-02-18T23:12:43.705Z,101223.41
2023-02-18T23:14:47.476Z,101207.03
2023-02-18T23:17:09.991Z,101206.06
2023-02-18T23:19:12.785Z,101211.00
2023-02-18T23:21:21.252Z,101209.31
2023-02-18T23:23:24.058Z,101211.22
2023-02-18T23:25:26.836Z,101200.06
2023-02-18T23:27:30.573Z,101207.78
2023-02-18T23:29:33.885Z,101204.25
2023-02-18T23:31:37.968Z,101206.84
2023-02-18T23:33:45.644Z,101208.66
2023-02-18T23:35:48.484Z,101210.41
2023-02-18T23:38:04.785Z,101217.16
2023-02-18T23:40:09.370Z,101206.94
2023-02-18T23:42:13.155Z,101211.06
2023-02-18T23:44:17.658Z,101206.78
2023-02-18T23:46:22.722Z,101212.66
2023-02-18T23:48:25.730Z,101204.97
2023-02-18T23:50:28.581Z,101197.09
2023-02-18T23:52:31.470Z,101207.75
2023-02-18T23:54:35.867Z,101209.41
2023-02-18T23:56:39.344Z,101207.84
2023-02-18T23:58:43.781Z,101212.66
